Time;durP1;ratioP1;P1;durP2;ratioP2;P2;SDS_P1;SDS_P2;PMS_P1;PMS_P2;Temp;Humidity;BMP_temperature;BMP_pressure;BME280_temperature;BME280_humidity;BME280_pressure;Samples;Min_cycle;Max_cycle;Signal;HPM_P1;HPM_P2
2021/11/21 00:01:47;;;;;;;;;44.00;31.50;;;;;8.42;70.35;101012.25;5098798;27;45438;-61
2021/11/21 00:04:13;;;;;;;;;42.00;34.00;;;;;8.44;70.47;101012.97;5098587;27;45220;-61
2021/11/21 00:06:38;;;;;;;;;44.00;31.50;;;;;8.45;70.34;101012.03;5080123;27;45970;-61
2021/11/21 00:09:03;;;;;;;;;33.50;31.50;;;;;8.47;70.16;101006.66;5079219;27;69486;-61
2021/11/21 00:11:29;;;;;;;;;37.00;29.75;;;;;8.48;70.05;100999.66;5098317;27;45624;-61
2021/11/21 00:13:54;;;;;;;;;40.25;33.00;;;;;8.49;70.11;100996.09;5098431;27;45256;-61
2021/11/21 00:16:20;;;;;;;;;38.50;31.00;;;;;8.50;70.26;100993.38;5079865;27;46023;-61
2021/11/21 00:18:45;;;;;;;;;43.00;33.75;;;;;8.48;70.50;100986.56;5098270;27;45339;-61
2021/11/21 00:21:11;;;;;;;;;33.00;29.75;;;;;8.50;70.58;100987.28;5097878;27;54708;-61
2021/11/21 00:23:36;;;;;;;;;44.00;33.25;;;;;8.48;70.73;100983.94;5097414;27;63137;-61
2021/11/21 00:26:02;;;;;;;;;39.00;29.50;;;;;8.50;70.74;100987.28;5097972;27;45330;-61
2021/11/21 00:28:27;;;;;;;;;41.00;31.50;;;;;8.49;70.93;100983.00;5098079;27;45233;-61
2021/11/21 00:30:53;;;;;;;;;34.75;27.50;;;;;8.51;70.73;100988.97;5079463;27;56502;-61
2021/11/21 00:33:18;;;;;;;;;36.75;26.25;;;;;8.50;70.55;100984.66;5097025;27;45514;-61
2021/11/21 00:35:44;;;;;;;;;43.00;30.75;;;;;8.50;71.10;100984.66;5097321;27;66530;-61
2021/11/21 00:38:09;;;;;;;;;34.50;27.25;;;;;8.50;70.97;100982.03;5079821;27;45213;-61
2021/11/21 00:40:35;;;;;;;;;38.50;31.25;;;;;8.51;70.98;100984.56;5097851;27;45366;-61
2021/11/21 00:43:00;;;;;;;;;41.00;32.50;;;;;8.53;70.79;100982.69;5097152;27;65641;-62
2021/11/21 00:45:27;;;;;;;;;35.50;30.50;;;;;8.54;70.79;100967.78;5079762;27;45375;-61
2021/11/21 00:47:52;;;;;;;;;35.75;28.25;;;;;8.52;70.99;100965.28;5079774;27;45841;-61
2021/11/21 00:50:23;;;;;;;;;36.00;30.00;;;;;8.53;70.72;100966.97;5097949;27;45548;-61
2021/11/21 00:52:50;;;;;;;;;36.75;29.75;;;;;8.53;70.95;100966.97;5097879;27;45237;-61
2021/11/21 00:55:20;;;;;;;;;34.50;31.25;;;;;8.52;70.79;100965.28;5079766;27;45274;-61
2021/11/21 00:57:45;;;;;;;;;42.25;34.00;;;;;8.52;70.92;100965.28;5097735;27;45364;-61
2021/11/21 01:00:12;;;;;;;;;41.75;31.25;;;;;8.51;70.98;100958.38;5096787;27;65915;-61
2021/11/21 01:02:38;;;;;;;;;39.50;31.00;;;;;8.52;71.13;100953.97;5079560;27;46040;-61
2021/11/21 01:05:06;;;;;;;;;44.75;31.75;;;;;8.52;71.12;100949.56;5097350;27;46036;-61
2021/11/21 01:07:33;;;;;;;;;56.00;39.00;;;;;8.53;71.18;100950.41;5097454;27;45889;-61
2021/11/21 01:09:58;;;;;;;;;44.00;35.25;;;;;8.53;71.15;100945.16;5097090;27;45275;-61
2021/11/21 01:12:24;;;;;;;;;44.25;32.50;;;;;8.56;70.90;100939.69;5097255;27;45361;-61
2021/11/21 01:14:49;;;;;;;;;42.75;35.25;;;;;8.56;71.13;100937.06;5096465;27;70251;-61
2021/11/21 01:17:15;;;;;;;;;43.25;35.00;;;;;8.55;70.95;100935.41;5097199;27;45357;-61
2021/11/21 01:19:43;;;;;;;;;43.25;33.00;;;;;8.55;71.09;100930.16;5078553;27;53114;-61
2021/11/21 01:22:09;;;;;;;;;55.75;41.25;;;;;8.55;70.99;100927.53;5097395;27;45489;-61
2021/11/21 01:24:34;;;;;;;;;69.00;48.50;;;;;8.55;71.17;100928.41;5096930;27;46077;-61
2021/11/21 01:27:00;;;;;;;;;47.25;35.25;;;;;8.56;71.35;100931.84;5097232;27;45331;-61
2021/11/21 01:29:25;;;;;;;;;50.25;36.00;;;;;8.57;71.01;100923.03;5077924;27;64725;-61
2021/11/21 01:31:50;;;;;;;;;47.00;34.00;;;;;8.58;70.98;100925.56;5078110;27;66030;-61
2021/11/21 01:34:16;;;;;;;;;52.25;39.00;;;;;8.57;70.98;100929.13;5096171;27;65334;-61
2021/11/21 01:36:41;;;;;;;;;45.25;35.00;;;;;8.59;71.04;100924.59;5078744;27;45265;-61
2021/11/21 01:39:07;;;;;;;;;46.25;35.00;;;;;8.59;70.77;100924.59;5078892;27;45446;-61
2021/11/21 01:41:34;;;;;;;;;44.75;37.25;;;;;8.59;70.71;100932.47;5096069;27;62088;-61
2021/11/21 01:43:59;;;;;;;;;48.25;36.25;;;;;8.58;70.97;100927.31;5096357;27;45624;-61
2021/11/21 01:46:36;;;;;;;;;44.50;35.75;;;;;8.57;70.91;100926.50;5096026;27;67255;-61
2021/11/21 01:49:01;;;;;;;;;48.25;34.50;;;;;8.57;70.82;100920.41;5078864;27;45345;-61
2021/11/21 01:51:27;;;;;;;;;48.25;35.75;;;;;8.56;70.85;100916.97;5096870;27;45532;-61
2021/11/21 01:53:52;;;;;;;;;50.50;35.00;;;;;8.56;71.01;100916.97;5095719;27;70580;-61
2021/11/21 01:56:18;;;;;;;;;50.50;35.00;;;;;8.55;70.99;100915.31;5096606;27;45311;-61
2021/11/21 01:58:43;;;;;;;;;38.00;30.50;;;;;8.55;71.02;100910.06;5078707;27;45297;-61
2021/11/21 02:01:08;;;;;;;;;40.00;32.25;;;;;8.53;71.22;100917.19;5078503;27;45335;-60
2021/11/21 02:03:34;;;;;;;;;41.50;34.25;;;;;8.54;71.55;100910.16;5095562;27;71100;-61
2021/11/21 02:06:00;;;;;;;;;44.00;31.25;;;;;8.55;71.37;100909.22;5095698;27;68100;-61
2021/11/21 02:08:26;;;;;;;;;48.50;36.50;;;;;8.55;71.47;100911.84;5078826;27;45460;-61
2021/11/21 02:10:57;;;;;;;;;41.75;33.00;;;;;8.54;71.45;100910.16;5096056;27;63070;-61
2021/11/21 02:13:22;;;;;;;;;45.50;34.50;;;;;8.55;71.42;100917.06;5079198;27;46491;-61
2021/11/21 02:15:48;;;;;;;;;37.50;34.00;;;;;8.54;71.55;100915.41;5096428;27;47536;-61
2021/11/21 02:18:13;;;;;;;;;48.50;32.75;;;;;8.52;71.24;100904.19;5095874;27;61078;-61
2021/11/21 02:20:38;;;;;;;;;41.50;31.50;;;;;8.52;71.55;100904.19;5096540;27;45729;-61
2021/11/21 02:23:05;;;;;;;;;36.67;31.00;;;;;8.52;71.36;100904.19;5096554;27;46289;-61
2021/11/21 02:25:30;;;;;;;;;37.75;32.00;;;;;8.51;71.56;100900.75;5096394;27;45198;-61
2021/11/21 02:27:56;;;;;;;;;43.50;32.00;;;;;8.48;71.47;100884.41;5096003;27;56826;-61
2021/11/21 02:30:21;;;;;;;;;35.00;29.50;;;;;8.49;71.49;100883.47;5077341;27;67622;-61
2021/11/21 02:32:49;;;;;;;;;37.50;32.25;;;;;8.48;71.77;100880.00;5095383;27;72232;-61
2021/11/21 02:35:15;;;;;;;;;42.50;35.25;;;;;8.49;71.49;100883.47;5096425;27;45900;-61
2021/11/21 02:37:40;;;;;;;;;36.50;29.25;;;;;8.50;71.46;100888.63;5095318;27;45434;-61
2021/11/21 02:40:07;;;;;;;;;41.75;33.00;;;;;8.48;71.58;100889.66;5096256;27;45534;-61
2021/11/21 02:42:36;;;;;;;;;37.75;29.25;;;;;8.46;71.70;100887.13;5095276;27;46701;-61
2021/11/21 02:45:06;;;;;;;;;35.75;29.25;;;;;8.45;71.72;100883.69;5096290;27;45781;-61
2021/11/21 02:47:34;;;;;;;;;34.00;29.50;;;;;8.45;71.87;100878.47;5096297;27;45367;-61
2021/11/21 02:50:05;;;;;;;;;40.00;33.00;;;;;8.46;72.01;100872.28;5096312;27;45249;-61
2021/11/21 02:52:30;;;;;;;;;43.00;33.75;;;;;8.48;72.06;100868.72;5096037;27;46423;-61
2021/11/21 02:54:56;;;;;;;;;38.75;29.00;;;;;8.49;71.80;100870.38;5096125;27;45420;-61
2021/11/21 02:57:22;;;;;;;;;45.75;35.75;;;;;8.48;71.82;100863.47;5098623;27;45445;-61
2021/11/21 02:59:48;;;;;;;;;36.50;31.25;;;;;8.46;71.89;100851.31;5099742;27;45454;-61
2021/11/21 03:02:13;;;;;;;;;46.75;35.00;;;;;8.49;71.99;100852.06;5098683;27;46462;-61
2021/11/21 03:04:38;;;;;;;;;40.50;33.00;;;;;8.49;72.00;100846.81;5099499;27;45311;-61
2021/11/21 03:07:04;;;;;;;;;44.25;33.75;;;;;8.51;71.98;100847.53;5099663;27;45773;-61
2021/11/21 03:09:29;;;;;;;;;46.25;37.25;;;;;8.51;71.79;100845.75;5080477;27;63319;-61
2021/11/21 03:11:54;;;;;;;;;48.50;36.75;;;;;8.52;71.67;100836.09;5098500;27;67754;-61
2021/11/21 03:14:20;;;;;;;;;49.00;36.75;;;;;8.51;71.71;100835.28;5080292;27;66523;-61
2021/11/21 03:16:47;;;;;;;;;47.00;38.75;;;;;8.53;71.72;100835.16;5098575;27;63885;-61
2021/11/21 03:19:12;;;;;;;;;54.00;39.50;;;;;8.51;71.61;100832.66;5099271;27;45318;-61
2021/11/21 03:21:38;;;;;;;;;47.50;39.00;;;;;8.51;71.62;100822.19;5099087;27;45275;-61
2021/11/21 03:24:03;;;;;;;;;52.50;39.50;;;;;8.51;71.78;100829.19;5099059;27;45315;-61
2021/11/21 03:26:29;;;;;;;;;54.75;37.00;;;;;8.51;71.53;100826.59;5081106;27;45290;-61
2021/11/21 03:28:54;;;;;;;;;49.25;35.50;;;;;8.49;71.46;100820.63;5099144;27;45564;-61
2021/11/21 03:31:20;;;;;;;;;54.25;40.00;;;;;8.47;71.31;100825.97;5098313;27;60368;-61
2021/11/21 03:33:45;;;;;;;;;50.00;38.50;;;;;8.46;71.59;100814.66;5097937;27;71517;-61
2021/11/21 03:36:11;;;;;;;;;43.75;35.00;;;;;8.45;71.39;100818.22;5099149;27;45474;-61
2021/11/21 03:38:36;;;;;;;;;52.00;38.75;;;;;8.45;71.72;100818.22;5098266;27;59934;-61
2021/11/21 03:41:02;;;;;;;;;51.25;35.75;;;;;8.45;71.21;100813.00;5098505;27;46333;-61
2021/11/21 03:43:27;;;;;;;;;43.25;31.25;;;;;8.44;71.43;100811.31;5098847;27;45842;-61
2021/11/21 03:45:52;;;;;;;;;44.75;35.00;;;;;8.45;71.49;100809.53;5097806;27;66678;-61
2021/11/21 03:48:18;;;;;;;;;43.75;35.25;;;;;8.44;71.54;100800.00;5098825;27;45576;-61
2021/11/21 03:50:43;;;;;;;;;49.00;36.75;;;;;8.43;71.51;100804.41;5098576;27;45364;-61
2021/11/21 03:53:09;;;;;;;;;50.50;37.75;;;;;8.42;71.47;100802.75;5097622;27;47371;-61
2021/11/21 03:55:34;;;;;;;;;50.75;38.75;;;;;8.42;71.49;100815.00;5098833;27;45775;-61
2021/11/21 03:57:59;;;;;;;;;50.00;36.25;;;;;8.41;71.96;100810.72;5097723;27;64069;-61
2021/11/21 04:00:25;;;;;;;;;46.00;34.50;;;;;8.40;71.79;100809.88;5098246;27;45468;-61
2021/11/21 04:02:51;;;;;;;;;47.50;35.50;;;;;8.41;71.56;100806.31;5098633;27;45422;-61
2021/11/21 04:05:16;;;;;;;;;41.50;34.75;;;;;8.40;71.87;100803.81;5080525;27;45473;-61
2021/11/21 04:07:42;;;;;;;;;46.50;34.50;;;;;8.41;71.92;100810.72;5098075;27;45467;-61
2021/11/21 04:10:07;;;;;;;;;46.25;35.25;;;;;8.40;71.97;100804.66;5098047;27;50154;-61
2021/11/21 04:12:33;;;;;;;;;50.00;35.50;;;;;8.40;71.63;100807.25;5098318;27;45444;-61
2021/11/21 04:14:58;;;;;;;;;39.00;32.50;;;;;8.41;72.07;100806.31;5097866;27;53932;-61
2021/11/21 04:17:24;;;;;;;;;42.50;32.50;;;;;8.42;71.96;100802.75;5097259;27;45236;-61
2021/11/21 04:19:49;;;;;;;;;42.50;33.50;;;;;8.41;71.76;100798.47;5097998;27;48090;-61
2021/11/21 04:22:14;;;;;;;;;37.00;29.75;;;;;8.40;72.09;100794.19;5097146;27;72183;-61
2021/11/21 04:24:40;;;;;;;;;35.50;32.25;;;;;8.40;72.03;100785.47;5098149;27;45327;-61
2021/11/21 04:27:05;;;;;;;;;42.75;33.00;;;;;8.42;72.03;100779.19;5097427;27;53281;-61
2021/11/21 04:29:33;;;;;;;;;37.50;30.50;;;;;8.43;71.96;100790.47;5097910;27;46303;-61
2021/11/21 04:31:58;;;;;;;;;43.00;35.75;;;;;8.43;71.99;100788.72;5079943;27;45325;-61
2021/11/21 04:34:23;;;;;;;;;43.00;32.75;;;;;8.43;71.72;100782.63;5079906;27;45297;-61
2021/11/21 04:36:49;;;;;;;;;37.25;32.50;;;;;8.43;71.64;100780.84;5097278;27;65511;-61
2021/11/21 04:39:14;;;;;;;;;36.75;31.75;;;;;8.43;71.75;100774.75;5097594;27;45416;-61
2021/11/21 04:41:40;;;;;;;;;41.00;33.00;;;;;8.43;72.07;100773.00;5097078;27;63143;-61
2021/11/21 04:44:05;;;;;;;;;37.25;31.50;;;;;8.44;72.09;100769.44;5097017;27;66235;-61
2021/11/21 04:46:30;;;;;;;;;41.00;31.50;;;;;8.45;72.22;100770.25;5097617;27;45315;-61
2021/11/21 04:48:56;;;;;;;;;37.00;31.75;;;;;8.46;72.13;100762.28;5096738;27;68907;-61
2021/11/21 04:51:21;;;;;;;;;40.50;30.25;;;;;8.47;72.21;100763.09;5097785;27;45313;-61
2021/11/21 04:53:47;;;;;;;;;32.75;28.75;;;;;8.48;72.17;100761.34;5096896;27;61601;-61
2021/11/21 04:56:12;;;;;;;;;26.25;26.25;;;;;8.49;72.15;100758.63;5097470;27;45529;-61
2021/11/21 04:58:37;;;;;;;;;36.00;28.50;;;;;8.49;72.24;100758.63;5096438;27;69442;-61
2021/11/21 05:01:03;;;;;;;;;30.50;24.00;;;;;8.50;72.36;100756.81;5096163;27;71492;-61
2021/11/21 05:03:28;;;;;;;;;33.75;24.00;;;;;8.51;72.45;100753.25;5096590;27;45392;-61
2021/11/21 05:05:54;;;;;;;;;34.50;24.00;;;;;8.52;72.48;100752.31;5096912;27;50229;-61
2021/11/21 05:08:20;;;;;;;;;43.50;29.25;;;;;8.54;72.33;100747.78;5095718;27;45683;-61
2021/11/21 05:10:45;;;;;;;;;38.50;28.25;;;;;8.53;72.19;100746.97;5096588;27;62655;-61
2021/11/21 05:13:10;;;;;;;;;30.00;25.00;;;;;8.55;72.17;100745.06;5096349;27;67573;-61
2021/11/21 05:15:36;;;;;;;;;35.00;30.50;;;;;8.54;72.30;100740.78;5096529;27;58959;-62
2021/11/21 05:18:01;;;;;;;;;23.75;21.50;;;;;8.55;72.06;100733.75;5096846;27;45588;-61
2021/11/21 05:20:27;;;;;;;;;32.00;27.00;;;;;8.55;72.29;100731.13;5096099;27;45419;-61
2021/11/21 05:22:52;;;;;;;;;35.25;25.50;;;;;8.55;72.42;100725.88;5096273;27;62304;-61
2021/11/21 05:25:17;;;;;;;;;32.00;27.75;;;;;8.55;71.99;100721.50;5096342;27;62274;-61
2021/11/21 05:27:46;;;;;;;;;36.75;29.75;;;;;8.55;72.18;100723.25;5096778;27;46497;-61
2021/11/21 05:30:13;;;;;;;;;33.25;26.50;;;;;8.57;72.04;100723.97;5096803;27;45773;-61
2021/11/21 05:32:39;;;;;;;;;37.25;28.00;;;;;8.58;72.13;100725.66;5094689;27;45224;-61
2021/11/21 05:35:04;;;;;;;;;36.00;29.00;;;;;8.55;72.13;100723.25;5096901;27;45473;-61
2021/11/21 05:37:30;;;;;;;;;38.50;29.25;;;;;8.56;72.40;100723.16;5096419;27;46257;-61
2021/11/21 05:39:55;;;;;;;;;33.50;24.75;;;;;8.56;72.18;100725.78;5096535;27;45380;-61
2021/11/21 05:42:21;;;;;;;;;34.75;28.75;;;;;8.57;72.05;100721.34;5078610;27;45575;-61
2021/11/21 05:44:46;;;;;;;;;34.50;28.00;;;;;8.56;72.09;100725.78;5096625;27;45320;-61
2021/11/21 05:47:11;;;;;;;;;32.50;28.25;;;;;8.56;72.24;100719.69;5095589;27;68103;-61
2021/11/21 05:49:37;;;;;;;;;31.50;27.50;;;;;8.55;72.32;100723.25;5095951;27;58855;-61
2021/11/21 05:52:02;;;;;;;;;32.50;23.50;;;;;8.57;72.14;100721.34;5095892;27;59568;-61
2021/11/21 05:54:27;;;;;;;;;29.50;25.00;;;;;8.58;72.02;100717.78;5095715;27;45384;-61
2021/11/21 05:56:53;;;;;;;;;32.75;24.75;;;;;8.56;72.24;100719.69;5096079;27;56123;-61
2021/11/21 05:59:18;;;;;;;;;37.50;30.00;;;;;8.56;72.23;100712.69;5096479;27;45331;-61
2021/11/21 06:01:44;;;;;;;;;30.25;24.00;;;;;8.56;72.43;100709.22;5078275;27;45331;-61
2021/11/21 06:04:09;;;;;;;;;27.25;21.75;;;;;8.57;72.40;100703.03;5095856;27;60645;-61
2021/11/21 06:06:34;;;;;;;;;30.00;24.00;;;;;8.57;72.26;100705.66;5095862;27;61018;-61
2021/11/21 06:09:01;;;;;;;;;30.75;23.00;;;;;8.58;72.43;100709.94;5096309;27;45374;-61
2021/11/21 06:11:27;;;;;;;;;27.50;22.25;;;;;8.56;72.52;100704.81;5096638;27;45421;-61
2021/11/21 06:13:52;;;;;;;;;24.00;18.25;;;;;8.57;72.33;100703.88;5096297;27;45454;-61
2021/11/21 06:16:17;;;;;;;;;29.00;24.75;;;;;8.56;72.34;100698.75;5077490;27;58791;-61
2021/11/21 06:18:43;;;;;;;;;28.75;22.00;;;;;8.56;72.24;100699.59;5096317;27;45216;-61
2021/11/21 06:21:08;;;;;;;;;28.50;22.00;;;;;8.57;72.52;100703.03;5077204;27;67207;-61
2021/11/21 06:23:34;;;;;;;;;29.00;24.50;;;;;8.57;72.42;100697.78;5095322;27;69039;-61
2021/11/21 06:26:01;;;;;;;;;29.75;25.00;;;;;8.57;72.43;100693.41;5096250;27;47058;-61
2021/11/21 06:28:27;;;;;;;;;29.00;24.00;;;;;8.57;72.25;100690.78;5078036;27;45268;-61
2021/11/21 06:30:52;;;;;;;;;27.25;25.25;;;;;8.59;72.54;100704.59;5098124;27;45399;-61
2021/11/21 06:33:18;;;;;;;;;29.00;21.50;;;;;8.60;72.74;100697.56;5098882;27;64185;-61
2021/11/21 06:35:44;;;;;;;;;28.50;24.00;;;;;8.59;72.70;100694.13;5081332;27;45516;-61
2021/11/21 06:38:09;;;;;;;;;28.50;23.75;;;;;8.59;72.67;100688.88;5099551;27;45367;-61
2021/11/21 06:40:35;;;;;;;;;29.25;21.00;;;;;8.60;72.53;100693.16;5080445;27;63449;-61
2021/11/21 06:43:00;;;;;;;;;27.50;23.00;;;;;8.60;72.31;100698.41;5099658;27;45359;-61
2021/11/21 06:45:26;;;;;;;;;24.50;21.00;;;;;8.59;72.25;100691.50;5080312;27;68221;-61
2021/11/21 06:47:51;;;;;;;;;17.75;16.25;;;;;8.60;72.35;100684.44;5081224;27;45454;-61
2021/11/21 06:50:16;;;;;;;;;21.00;20.00;;;;;8.59;72.31;100693.25;5099570;27;45292;-61
2021/11/21 06:52:42;;;;;;;;;29.00;21.75;;;;;8.58;72.35;100686.34;5098831;27;60251;-61
2021/11/21 06:55:10;;;;;;;;;27.50;19.75;;;;;8.57;72.34;100690.78;5098231;27;45374;-61
2021/11/21 06:57:35;;;;;;;;;22.25;18.75;;;;;8.60;72.49;100695.78;5063995;27;45771;-61
2021/11/21 07:00:05;;;;;;;;;27.50;22.00;;;;;8.58;72.34;100692.44;5099146;27;48557;-61
2021/11/21 07:02:30;;;;;;;;;20.75;14.25;;;;;8.57;72.54;100693.41;5081696;27;45329;-61
2021/11/21 07:04:56;;;;;;;;;26.25;20.75;;;;;8.58;72.46;100697.69;5079708;27;75458;-61
2021/11/21 07:07:21;;;;;;;;;25.50;21.75;;;;;8.59;72.57;100690.66;5098306;27;62916;-61
2021/11/21 07:09:48;;;;;;;;;26.50;19.25;;;;;8.57;72.64;100690.78;5098472;27;61560;-61
2021/11/21 07:12:13;;;;;;;;;25.50;22.00;;;;;8.56;72.67;100693.50;5099172;27;45353;-61
2021/11/21 07:14:39;;;;;;;;;28.25;23.75;;;;;8.57;72.77;100695.16;5098793;27;45371;-61
2021/11/21 07:17:04;;;;;;;;;23.50;20.25;;;;;8.58;72.71;100697.69;5098105;27;68324;-61
2021/11/21 07:19:30;;;;;;;;;36.50;25.75;;;;;8.59;72.93;100695.88;5099040;27;45500;-61
2021/11/21 07:21:55;;;;;;;;;29.25;23.00;;;;;8.59;72.71;100690.66;5098227;27;63067;-61
2021/11/21 07:24:20;;;;;;;;;31.75;26.50;;;;;8.61;72.88;100691.34;5097880;27;71616;-61
2021/11/21 07:26:46;;;;;;;;;27.00;21.25;;;;;8.62;72.82;100693.03;5079722;27;63542;-61
2021/11/21 07:29:12;;;;;;;;;28.75;23.25;;;;;8.62;72.81;100693.03;5098858;27;45256;-61
2021/11/21 07:31:37;;;;;;;;;25.25;22.25;;;;;8.62;72.79;100687.78;5098574;27;45635;-61
2021/11/21 07:34:03;;;;;;;;;30.25;26.75;;;;;8.63;72.58;100689.47;5098517;27;46444;-61
2021/11/21 07:36:28;;;;;;;;;44.00;34.25;;;;;8.63;72.41;100684.22;5080521;27;45386;-61
2021/11/21 07:38:54;;;;;;;;;32.25;24.50;;;;;8.65;72.75;100686.72;5098134;27;60002;-61
2021/11/21 07:41:19;;;;;;;;;31.25;23.75;;;;;8.65;72.72;100686.72;5098340;27;45323;-61
2021/11/21 07:43:45;;;;;;;;;31.00;26.50;;;;;8.63;72.72;100684.22;5097757;27;45406;-61
2021/11/21 07:46:10;;;;;;;;;30.25;24.50;;;;;8.64;72.84;100678.03;5098144;27;45243;-61
2021/11/21 07:48:35;;;;;;;;;28.50;25.50;;;;;8.65;72.75;100681.50;5098466;27;45347;-61
2021/11/21 07:51:01;;;;;;;;;30.25;25.50;;;;;8.64;72.63;100674.59;5079528;27;65723;-61
2021/11/21 07:53:26;;;;;;;;;28.25;26.00;;;;;8.65;72.59;100686.72;5098240;27;46461;-61
2021/11/21 07:55:52;;;;;;;;;40.25;28.50;;;;;8.64;72.59;100685.06;5080088;27;45209;-61
2021/11/21 07:58:17;;;;;;;;;33.50;24.50;;;;;8.65;72.79;100687.56;5098712;27;45264;-61
2021/11/21 08:00:43;;;;;;;;;29.25;24.50;;;;;8.65;72.91;100679.69;5063063;27;45553;-61
2021/11/21 08:03:08;;;;;;;;;32.25;25.50;;;;;8.67;72.85;100676.97;5097838;27;59698;-61
2021/11/21 08:05:34;;;;;;;;;34.50;27.00;;;;;8.68;72.91;100681.25;5098323;27;45263;-61
2021/11/21 08:07:59;;;;;;;;;24.75;21.75;;;;;8.69;72.87;100672.44;5098235;27;45343;-61
2021/11/21 08:10:24;;;;;;;;;33.75;26.00;;;;;8.68;72.70;100674.22;5079483;27;45526;-61
2021/11/21 08:12:50;;;;;;;;;30.75;24.25;;;;;8.70;72.79;100674.13;5078882;27;69914;-61
2021/11/21 08:15:15;;;;;;;;;29.25;25.75;;;;;8.69;73.06;100670.66;5097997;27;45491;-61
2021/11/21 08:17:41;;;;;;;;;35.75;25.00;;;;;8.71;73.07;100666.13;5098206;27;45860;-61
2021/11/21 08:20:07;;;;;;;;;27.75;22.25;;;;;8.73;73.05;100653.72;5098111;27;45583;-60
2021/11/21 08:22:32;;;;;;;;;35.00;25.00;;;;;8.73;73.22;100663.41;5097682;27;46728;-61
2021/11/21 08:24:57;;;;;;;;;24.75;21.75;;;;;8.75;72.87;100662.31;5079711;27;45418;-61
2021/11/21 08:27:23;;;;;;;;;30.75;25.25;;;;;8.74;72.82;100671.13;5096990;27;58695;-61
2021/11/21 08:29:50;;;;;;;;;27.00;23.50;;;;;8.75;72.58;100670.16;5078770;27;63655;-61
2021/11/21 08:32:16;;;;;;;;;30.25;26.00;;;;;8.76;72.82;100673.59;5079579;27;45629;-61
2021/11/21 08:34:42;;;;;;;;;29.50;21.75;;;;;8.78;73.04;100676.13;5079202;27;45942;-61
2021/11/21 08:37:07;;;;;;;;;30.75;21.50;;;;;8.76;72.89;100677.06;5097101;27;56930;-60
2021/11/21 08:39:33;;;;;;;;;35.75;28.00;;;;;8.79;72.90;100673.38;5097523;27;45545;-62
2021/11/21 08:41:58;;;;;;;;;22.00;18.25;;;;;8.79;72.92;100673.38;5078854;27;48234;-61
2021/11/21 08:44:24;;;;;;;;;32.00;24.25;;;;;8.79;73.05;100669.94;5096747;27;64156;-61
2021/11/21 08:46:49;;;;;;;;;39.00;25.50;;;;;8.80;72.84;100663.72;5097449;27;45224;-61
2021/11/21 08:49:15;;;;;;;;;30.50;22.75;;;;;8.79;72.80;100681.22;5096373;27;45297;-61
2021/11/21 08:51:42;;;;;;;;;30.75;24.25;;;;;8.80;73.07;100680.28;5097380;27;46416;-61
2021/11/21 08:54:08;;;;;;;;;32.00;26.25;;;;;8.80;73.22;100675.03;5096264;27;45304;-61
2021/11/21 08:56:33;;;;;;;;;35.25;29.00;;;;;8.82;73.17;100673.13;5079424;27;45343;-61
2021/11/21 08:58:59;;;;;;;;;35.75;25.50;;;;;8.82;73.10;100677.53;5078237;27;66407;-61
2021/11/21 09:01:24;;;;;;;;;35.75;24.75;;;;;8.82;73.17;100673.13;5096366;27;70294;-61
2021/11/21 09:03:50;;;;;;;;;37.00;29.25;;;;;8.83;73.07;100664.31;5097258;27;45472;-61
2021/11/21 09:06:15;;;;;;;;;32.75;25.00;;;;;8.85;72.73;100672.06;5096954;27;52800;-61
2021/11/21 09:08:40;;;;;;;;;35.50;25.75;;;;;8.86;72.92;100665.88;5097180;27;45359;-61
2021/11/21 09:11:06;;;;;;;;;33.75;25.50;;;;;8.87;73.10;100662.28;5096951;27;49479;-61
2021/11/21 09:13:31;;;;;;;;;31.00;24.25;;;;;8.88;73.12;100653.47;5097105;27;47673;-61
2021/11/21 09:15:58;;;;;;;;;33.50;28.75;;;;;8.88;73.04;100648.25;5097212;27;45474;-61
2021/11/21 09:18:25;;;;;;;;;34.25;26.75;;;;;8.88;72.97;100661.34;5097170;27;45489;-61
2021/11/21 09:20:52;;;;;;;;;34.00;26.50;;;;;8.90;72.92;100672.53;5097105;27;46169;-61
2021/11/21 09:23:19;;;;;;;;;33.75;24.75;;;;;8.91;72.88;100666.34;5078818;27;45800;-61
2021/11/21 09:25:44;;;;;;;;;40.75;32.25;;;;;8.94;72.96;100663.47;5096358;27;45378;-61
2021/11/21 09:28:10;;;;;;;;;30.75;27.25;;;;;8.97;72.91;100668.47;5096720;27;45539;-61
2021/11/21 09:30:35;;;;;;;;;40.00;32.00;;;;;8.98;72.63;100664.91;5061733;27;45305;-61
2021/11/21 09:33:00;;;;;;;;;42.00;33.50;;;;;9.00;72.66;100657.75;5078329;27;45824;-61
2021/11/21 09:35:26;;;;;;;;;35.25;31.50;;;;;9.02;72.84;100663.66;5097085;27;45212;-61
2021/11/21 09:37:51;;;;;;;;;45.50;36.25;;;;;9.03;72.89;100664.53;5096711;27;45630;-61
2021/11/21 09:40:17;;;;;;;;;42.00;35.00;;;;;9.05;72.91;100668.66;5078228;27;45315;-61
2021/11/21 09:42:42;;;;;;;;;37.25;29.75;;;;;9.07;72.53;100665.94;5096121;27;60526;-61
2021/11/21 09:45:09;;;;;;;;;39.00;31.00;;;;;9.09;72.62;100668.44;5095820;27;62652;-61
2021/11/21 09:47:34;;;;;;;;;47.00;31.75;;;;;9.10;72.58;100668.31;5096617;27;45457;-61
2021/11/21 09:50:01;;;;;;;;;36.75;28.25;;;;;9.13;73.12;100667.22;5078384;27;45781;-62
2021/11/21 09:52:27;;;;;;;;;40.25;35.00;;;;;9.14;73.06;100672.38;5096520;27;45430;-60
2021/11/21 09:54:52;;;;;;;;;40.50;35.00;;;;;9.16;72.51;100670.44;5096691;27;45435;-60
2021/11/21 09:57:18;;;;;;;;;44.50;36.00;;;;;9.17;72.70;100672.13;5095611;27;62983;-60
2021/11/21 09:59:59;;;;;;;;;38.75;33.00;;;;;9.18;72.78;100667.69;5077845;27;47244;-62
2021/11/21 10:02:31;;;;;;;;;41.25;32.75;;;;;9.18;72.65;100665.91;5078238;27;45479;-60
2021/11/21 10:05:07;;;;;;;;;37.75;31.75;;;;;9.20;72.57;100664.00;5096709;27;45308;-60
2021/11/21 10:07:34;;;;;;;;;38.25;33.75;;;;;9.23;72.66;100668.16;5100078;27;45390;-62
2021/11/21 10:10:00;;;;;;;;;35.75;32.00;;;;;9.26;72.65;100661.84;5081520;27;46304;-61
2021/11/21 10:12:32;;;;;;;;;36.50;30.25;;;;;9.29;72.49;100672.91;5081411;27;45563;-61
2021/11/21 10:15:18;;;;;;;;;34.75;31.00;;;;;9.29;72.52;100653.69;5082585;27;45409;-62
2021/11/21 10:17:50;;;;;;;;;31.75;25.50;;;;;9.30;72.50;100655.38;5081320;27;45279;-62
2021/11/21 10:20:29;;;;;;;;;25.50;22.50;;;;;9.31;72.26;100662.28;5099295;27;45449;-62
2021/11/21 10:23:05;;;;;;;;;31.25;25.75;;;;;9.32;72.32;100651.69;5099834;27;45216;-61
2021/11/21 10:25:34;;;;;;;;;31.50;25.50;;;;;9.34;72.21;100646.28;5099942;27;45380;-61
2021/11/21 10:28:03;;;;;;;;;27.75;24.75;;;;;9.34;72.13;100643.69;5099593;27;45315;-61
2021/11/21 10:30:29;;;;;;;;;24.50;21.25;;;;;9.34;72.52;100646.28;5099719;27;46090;-61
2021/11/21 10:32:54;;;;;;;;;34.25;27.50;;;;;9.35;72.46;100647.97;5081097;27;45298;-61
2021/11/21 10:35:22;;;;;;;;;31.75;26.75;;;;;9.38;72.59;100649.53;5080923;27;45327;-62
2021/11/21 10:37:47;;;;;;;;;30.75;24.75;;;;;9.38;72.23;100652.97;5063879;27;45357;-62
2021/11/21 10:40:15;;;;;;;;;32.00;28.75;;;;;9.39;72.21;100644.13;5062913;27;68935;-61
2021/11/21 10:42:41;;;;;;;;;32.00;23.50;;;;;9.41;72.20;100644.03;5081045;27;45339;-61
2021/11/21 10:45:08;;;;;;;;;35.50;29.50;;;;;9.42;72.07;100637.81;5097626;27;45399;-62
2021/11/21 10:47:53;;;;;;;;;32.50;26.25;;;;;9.41;72.11;100647.47;5099213;27;45481;-61
2021/11/21 10:50:35;;;;;;;;;42.25;32.00;;;;;9.43;71.99;100639.50;5098589;27;45511;-61
2021/11/21 10:53:08;;;;;;;;;40.50;32.00;;;;;9.42;71.95;100637.81;5099292;27;45384;-61
2021/11/21 10:55:34;;;;;;;;;41.50;33.00;;;;;9.43;71.94;100635.06;5099156;27;45395;-61
2021/11/21 10:58:12;;;;;;;;;38.25;28.50;;;;;9.45;72.26;100627.91;5099077;27;45390;-61
2021/11/21 11:00:37;;;;;;;;;32.25;27.25;;;;;9.44;72.35;100628.03;5080719;27;47114;-62
2021/11/21 11:03:03;;;;;;;;;33.25;29.50;;;;;9.47;72.08;100625.16;5099232;27;45324;-61
2021/11/21 11:05:29;;;;;;;;;37.50;32.00;;;;;9.49;72.17;100628.50;5099368;27;45431;-62
2021/11/21 11:08:01;;;;;;;;;36.50;31.00;;;;;9.47;72.00;100622.53;5063757;27;45252;-61
2021/11/21 11:10:28;;;;;;;;;35.25;32.25;;;;;9.48;72.35;100619.78;5099062;27;45521;-62
2021/11/21 11:12:56;;;;;;;;;32.50;30.75;;;;;9.48;72.32;100622.41;5098797;27;45202;-61